sensor_id;sensor_type;location;lat;lon;timestamp;temperature;humidity
9373;DHT22;10838;52.350;9.790;2024-01-15T00:00:00;2.80;97.90
9373;DHT22;10838;52.350;9.790;2024-01-15T00:02:29;2.80;97.90
9373;DHT22;10838;52.350;9.790;2024-01-15T00:04:55;2.80;97.90
9373;DHT22;10838;52.350;9.790;2024-01-15T00:07:22;2.80;97.90
9373;DHT22;10838;52.350;9.790;2024-01-15T00:09:48;2.80;97.90
9373;DHT22;10838;52.350;9.790;2024-01-15T00:12:15;2.80;97.90
9373;DHT22;10838;52.350;9.790;2024-01-15T00:14:43;2.80;97.90
9373;DHT22;10838;52.350;9.790;2024-01-15T00:17:09;2.80;97.90
9373;DHT22;10838;52.350;9.790;2024-01-15T00:19:36;2.80;97.90
9373;DHT22;10838;52.350;9.790;2024-01-15T00:22:02;2.80;97.90
9373;DHT22;10838;52.350;9.790;2024-01-15T00:24:29;2.80;97.90
9373;DHT22;10838;52.350;9.790;2024-01-15T00:26:56;2.80;97.90
9373;DHT22;10838;52.350;9.790;2024-01-15T00:29:22;2.80;97.90
9373;DHT22;10838;52.350;9.790;2024-01-15T00:31:50;2.80;97.90
9373;DHT22;10838;52.350;9.790;2024-01-15T00:34:17;2.80;97.90
9373;DHT22;10838;52.350;9.790;2024-01-15T00:36:43;2.80;97.80
9373;DHT22;10838;52.350;9.790;2024-01-15T00:39:10;2.80;97.80
9373;DHT22;10838;52.350;9.790;2024-01-15T00:41:37;2.80;97.80
9373;DHT22;10838;52.350;9.790;2024-01-15T00:44:03;2.80;97.80
9373;DHT22;10838;52.350;9.790;2024-01-15T00:46:30;2.80;97.80
9373;DHT22;10838;52.350;9.790;2024-01-15T00:48:58;2.80;97.80
9373;DHT22;10838;52.350;9.790;2024-01-15T00:51:24;2.80;97.80
9373;DHT22;10838;52.350;9.790;2024-01-15T00:53:51;2.80;97.80
9373;DHT22;10838;52.350;9.790;2024-01-15T00:56:17;2.70;97.80
9373;DHT22;10838;52.350;9.790;2024-01-15T00:58:44;2.70;97.80
9373;DHT22;10838;52.350;9.790;2024-01-15T01:01:10;2.70;97.80
9373;DHT22;10838;52.350;9.790;2024-01-15T01:03:37;2.70;97.80
9373;DHT22;10838;52.350;9.790;2024-01-15T01:06:05;2.70;97.80
9373;DHT22;10838;52.350;9.790;2024-01-15T01:08:31;2.70;97.80
9373;DHT22;10838;52.350;9.790;2024-01-15T01:10:58;2.70;97.80
9373;DHT22;10838;52.350;9.790;2024-01-15T01:13:24;2.70;97.80
9373;DHT22;10838;52.350;9.790;2024-01-15T01:15:51;2.70;97.80
9373;DHT22;10838;52.350;9.790;2024-01-15T01:18:17;2.70;97.80
9373;DHT22;10838;52.350;9.790;2024-01-15T01:20:44;2.60;97.80
9373;DHT22;10838;52.350;9.790;2024-01-15T01:23:12;2.70;97.80
9373;DHT22;10838;52.350;9.790;2024-01-15T01:25:38;2.60;97.80
9373;DHT22;10838;52.350;9.790;2024-01-15T01:28:05;2.60;97.70
9373;DHT22;10838;52.350;9.790;2024-01-15T01:30:32;2.60;97.70
9373;DHT22;10838;52.350;9.790;2024-01-15T01:32:58;2.60;97.70
9373;DHT22;10838;52.350;9.790;2024-01-15T01:35:25;2.60;97.70
9373;DHT22;10838;52.350;9.790;2024-01-15T01:37:51;2.60;97.70
9373;DHT22;10838;52.350;9.790;2024-01-15T01:40:19;2.60;97.70
9373;DHT22;10838;52.350;9.790;2024-01-15T01:42:46;2.60;97.70
9373;DHT22;10838;52.350;9.790;2024-01-15T01:45:13;2.60;97.70
9373;DHT22;10838;52.350;9.790;2024-01-15T01:47:39;2.60;97.70
9373;DHT22;10838;52.350;9.790;2024-01-15T01:50:06;2.60;97.70
9373;DHT22;10838;52.350;9.790;2024-01-15T01:52:34;2.60;97.60
9373;DHT22;10838;52.350;9.790;2024-01-15T01:55:02;2.60;97.60
9373;DHT22;10838;52.350;9.790;2024-01-15T01:57:31;2.60;97.60
9373;DHT22;10838;52.350;9.790;2024-01-15T01:59:59;2.60;97.60
9373;DHT22;10838;52.350;9.790;2024-01-15T02:02:26;2.60;97.60
9373;DHT22;10838;52.350;9.790;2024-01-15T02:04:53;2.60;97.60
9373;DHT22;10838;52.350;9.790;2024-01-15T02:07:20;2.70;97.60
9373;DHT22;10838;52.350;9.790;2024-01-15T02:09:47;2.70;97.50
9373;DHT22;10838;52.350;9.790;2024-01-15T02:12:13;2.70;97.50
9373;DHT22;10838;52.350;9.790;2024-01-15T02:14:41;2.70;97.50
9373;DHT22;10838;52.350;9.790;2024-01-15T02:17:08;2.70;97.50
9373;DHT22;10838;52.350;9.790;2024-01-15T02:19:34;2.70;97.50
9373;DHT22;10838;52.350;9.790;2024-01-15T02:22:01;2.70;97.50
9373;DHT22;10838;52.350;9.790;2024-01-15T02:24:29;2.70;97.50
9373;DHT22;10838;52.350;9.790;2024-01-15T02:26:55;2.70;97.50
9373;DHT22;10838;52.350;9.790;2024-01-15T02:29:22;2.80;97.50
9373;DHT22;10838;52.350;9.790;2024-01-15T02:31:49;2.80;97.50
9373;DHT22;10838;52.350;9.790;2024-01-15T02:34:15;2.80;97.50
9373;DHT22;10838;52.350;9.790;2024-01-15T02:36:42;2.80;97.40
9373;DHT22;10838;52.350;9.790;2024-01-15T02:39:08;2.80;97.40
9373;DHT22;10838;52.350;9.790;2024-01-15T02:41:36;2.80;97.40
9373;DHT22;10838;52.350;9.790;2024-01-15T02:44:03;2.90;97.40
9373;DHT22;10838;52.350;9.790;2024-01-15T02:46:29;2.90;97.40
9373;DHT22;10838;52.350;9.790;2024-01-15T02:48:56;2.90;97.30
9373;DHT22;10838;52.350;9.790;2024-01-15T02:51:22;2.90;97.30
9373;DHT22;10838;52.350;9.790;2024-01-15T02:53:50;2.90;97.30
9373;DHT22;10838;52.350;9.790;2024-01-15T02:56:16;2.90;97.30
9373;DHT22;10838;52.350;9.790;2024-01-15T02:58:44;2.90;97.30
9373;DHT22;10838;52.350;9.790;2024-01-15T03:01:11;2.90;97.30
9373;DHT22;10838;52.350;9.790;2024-01-15T03:03:37;2.90;97.30
9373;DHT22;10838;52.350;9.790;2024-01-15T03:06:06;2.90;97.30
9373;DHT22;10838;52.350;9.790;2024-01-15T03:08:32;3.00;97.30
9373;DHT22;10838;52.350;9.790;2024-01-15T03:11:00;3.00;97.20
9373;DHT22;10838;52.350;9.790;2024-01-15T03:13:27;3.00;97.20
9373;DHT22;10838;52.350;9.790;2024-01-15T03:15:54;3.00;97.20
9373;DHT22;10838;52.350;9.790;2024-01-15T03:18:21;3.00;97.20
9373;DHT22;10838;52.350;9.790;2024-01-15T03:20:48;2.90;97.20
9373;DHT22;10838;52.350;9.790;2024-01-15T03:23:14;2.90;97.20
9373;DHT22;10838;52.350;9.790;2024-01-15T03:25:41;2.90;97.20
9373;DHT22;10838;52.350;9.790;2024-01-15T03:28:07;2.90;97.20
9373;DHT22;10838;52.350;9.790;2024-01-15T03:30:34;2.90;97.20
9373;DHT22;10838;52.350;9.790;2024-01-15T03:33:02;2.90;97.20
9373;DHT22;10838;52.350;9.790;2024-01-15T03:35:28;2.90;97.20
9373;DHT22;10838;52.350;9.790;2024-01-15T03:37:56;2.90;97.20
9373;DHT22;10838;52.350;9.790;2024-01-15T03:40:22;2.90;97.20
9373;DHT22;10838;52.350;9.790;2024-01-15T03:42:49;2.90;97.20
9373;DHT22;10838;52.350;9.790;2024-01-15T03:45:15;2.90;97.20
9373;DHT22;10838;52.350;9.790;2024-01-15T03:47:42;2.90;97.20
9373;DHT22;10838;52.350;9.790;2024-01-15T03:50:10;3.00;97.20
9373;DHT22;10838;52.350;9.790;2024-01-15T03:52:37;3.00;97.20
9373;DHT22;10838;52.350;9.790;2024-01-15T03:55:05;3.00;97.20
9373;DHT22;10838;52.350;9.790;2024-01-15T03:57:31;3.00;97.20
9373;DHT22;10838;52.350;9.790;2024-01-15T03:59:58;3.00;97.20
9373;DHT22;10838;52.350;9.790;2024-01-15T04:02:24;3.00;97.20
9373;DHT22;10838;52.350;9.790;2024-01-15T04:04:51;3.00;97.20
9373;DHT22;10838;52.350;9.790;2024-01-15T04:07:18;3.00;97.20
9373;DHT22;10838;52.350;9.790;2024-01-15T04:09:45;3.10;97.20
9373;DHT22;10838;52.350;9.790;2024-01-15T04:12:11;3.00;97.20
9373;DHT22;10838;52.350;9.790;2024-01-15T04:14:38;3.00;97.20
9373;DHT22;10838;52.350;9.790;2024-01-15T04:17:05;3.10;97.20
9373;DHT22;10838;52.350;9.790;2024-01-15T04:19:31;3.10;97.20
9373;DHT22;10838;52.350;9.790;2024-01-15T04:21:58;3.10;97.20
9373;DHT22;10838;52.350;9.790;2024-01-15T04:24:25;3.10;97.20
9373;DHT22;10838;52.350;9.790;2024-01-15T04:26:52;3.10;97.20
9373;DHT22;10838;52.350;9.790;2024-01-15T04:29:18;3.10;97.20
9373;DHT22;10838;52.350;9.790;2024-01-15T04:31:45;3.10;97.20
9373;DHT22;10838;52.350;9.790;2024-01-15T04:34:11;3.00;97.20
9373;DHT22;10838;52.350;9.790;2024-01-15T04:36:39;3.10;97.20
9373;DHT22;10838;52.350;9.790;2024-01-15T04:39:06;3.10;97.20
9373;DHT22;10838;52.350;9.790;2024-01-15T04:41:34;3.10;97.20
9373;DHT22;10838;52.350;9.790;2024-01-15T04:44:00;3.10;97.20
9373;DHT22;10838;52.350;9.790;2024-01-15T04:46:27;3.10;97.20
9373;DHT22;10838;52.350;9.790;2024-01-15T04:48:53;3.10;97.20
9373;DHT22;10838;52.350;9.790;2024-01-15T04:51:20;3.10;97.20
9373;DHT22;10838;52.350;9.790;2024-01-15T04:53:46;3.10;97.20
9373;DHT22;10838;52.350;9.790;2024-01-15T04:56:13;3.10;97.20
9373;DHT22;10838;52.350;9.790;2024-01-15T04:58:41;3.10;97.20
9373;DHT22;10838;52.350;9.790;2024-01-15T05:01:08;3.10;97.20
9373;DHT22;10838;52.350;9.790;2024-01-15T05:03:35;3.10;97.20
9373;DHT22;10838;52.350;9.790;2024-01-15T05:06:01;3.10;97.30
9373;DHT22;10838;52.350;9.790;2024-01-15T05:08:28;3.10;97.30
9373;DHT22;10838;52.350;9.790;2024-01-15T05:10:55;3.10;97.30
9373;DHT22;10838;52.350;9.790;2024-01-15T05:13:21;3.10;97.30
9373;DHT22;10838;52.350;9.790;2024-01-15T05:15:49;3.00;97.30
9373;DHT22;10838;52.350;9.790;2024-01-15T05:18:16;3.00;97.30
9373;DHT22;10838;52.350;9.790;2024-01-15T05:20:43;3.00;97.30
9373;DHT22;10838;52.350;9.790;2024-01-15T05:23:09;2.90;97.40
9373;DHT22;10838;52.350;9.790;2024-01-15T05:25:36;2.90;97.40
9373;DHT22;10838;52.350;9.790;2024-01-15T05:28:04;2.90;97.40
9373;DHT22;10838;52.350;9.790;2024-01-15T05:30:31;2.90;97.40
9373;DHT22;10838;52.350;9.790;2024-01-15T05:32:59;2.90;97.50
9373;DHT22;10838;52.350;9.790;2024-01-15T05:35:26;2.90;97.40
9373;DHT22;10838;52.350;9.790;2024-01-15T05:37:53;2.90;97.40
9373;DHT22;10838;52.350;9.790;2024-01-15T05:40:19;2.90;97.40
9373;DHT22;10838;52.350;9.790;2024-01-15T05:42:46;2.90;97.40
9373;DHT22;10838;52.350;9.790;2024-01-15T05:45:12;2.90;97.40
9373;DHT22;10838;52.350;9.790;2024-01-15T05:47:39;2.90;97.40
9373;DHT22;10838;52.350;9.790;2024-01-15T05:50:07;2.90;97.40
9373;DHT22;10838;52.350;9.790;2024-01-15T05:52:34;2.80;97.40
9373;DHT22;10838;52.350;9.790;2024-01-15T05:55:00;2.90;97.40
9373;DHT22;10838;52.350;9.790;2024-01-15T05:57:27;2.90;97.40
9373;DHT22;10838;52.350;9.790;2024-01-15T05:59:54;2.90;97.40
9373;DHT22;10838;52.350;9.790;2024-01-15T06:02:20;2.90;97.40
9373;DHT22;10838;52.350;9.790;2024-01-15T06:04:47;2.90;97.40
9373;DHT22;10838;52.350;9.790;2024-01-15T06:07:15;2.90;97.40
9373;DHT22;10838;52.350;9.790;2024-01-15T06:09:41;2.90;97.40
9373;DHT22;10838;52.350;9.790;2024-01-15T06:12:08;2.90;97.40
9373;DHT22;10838;52.350;9.790;2024-01-15T06:14:35;2.90;97.40
9373;DHT22;10838;52.350;9.790;2024-01-15T06:17:01;2.90;97.40
9373;DHT22;10838;52.350;9.790;2024-01-15T06:19:28;2.90;97.40
9373;DHT22;10838;52.350;9.790;2024-01-15T06:21:54;2.90;97.40
9373;DHT22;10838;52.350;9.790;2024-01-15T06:24:22;2.90;97.40
9373;DHT22;10838;52.350;9.790;2024-01-15T06:26:49;2.80;97.40
9373;DHT22;10838;52.350;9.790;2024-01-15T06:29:15;2.90;97.50
9373;DHT22;10838;52.350;9.790;2024-01-15T06:31:42;2.90;97.50
9373;DHT22;10838;52.350;9.790;2024-01-15T06:34:08;2.90;97.50
9373;DHT22;10838;52.350;9.790;2024-01-15T06:36:35;2.90;97.50
9373;DHT22;10838;52.350;9.790;2024-01-15T06:39:02;2.90;97.50
9373;DHT22;10838;52.350;9.790;2024-01-15T06:41:29;2.90;97.50
9373;DHT22;10838;52.350;9.790;2024-01-15T06:43:56;2.90;97.50
9373;DHT22;10838;52.350;9.790;2024-01-15T06:46:23;2.90;97.50
9373;DHT22;10838;52.350;9.790;2024-01-15T06:48:50;2.80;97.50
9373;DHT22;10838;52.350;9.790;2024-01-15T06:51:16;2.80;97.50
9373;DHT22;10838;52.350;9.790;2024-01-15T06:53:43;2.80;97.50
9373;DHT22;10838;52.350;9.790;2024-01-15T06:56:10;2.80;97.50
9373;DHT22;10838;52.350;9.790;2024-01-15T06:58:37;2.80;97.50
9373;DHT22;10838;52.350;9.790;2024-01-15T07:01:04;2.80;97.50
9373;DHT22;10838;52.350;9.790;2024-01-15T07:03:31;2.80;97.50
9373;DHT22;10838;52.350;9.790;2024-01-15T07:05:58;2.80;97.50
9373;DHT22;10838;52.350;9.790;2024-01-15T07:08:24;2.80;97.50
9373;DHT22;10838;52.350;9.790;2024-01-15T07:10:51;2.80;97.60
9373;DHT22;10838;52.350;9.790;2024-01-15T07:13:17;2.90;97.50
9373;DHT22;10838;52.350;9.790;2024-01-15T07:15:45;2.90;97.50
9373;DHT22;10838;52.350;9.790;2024-01-15T07:18:12;2.90;97.50
9373;DHT22;10838;52.350;9.790;2024-01-15T07:20:38;2.90;97.50
9373;DHT22;10838;52.350;9.790;2024-01-15T07:23:05;2.90;97.50
9373;DHT22;10838;52.350;9.790;2024-01-15T07:25:32;2.90;97.50
9373;DHT22;10838;52.350;9.790;2024-01-15T07:27:59;2.90;97.50
9373;DHT22;10838;52.350;9.790;2024-01-15T07:30:25;2.90;97.50
9373;DHT22;10838;52.350;9.790;2024-01-15T07:32:53;2.90;97.50
9373;DHT22;10838;52.350;9.790;2024-01-15T07:35:20;2.90;97.50
9373;DHT22;10838;52.350;9.790;2024-01-15T07:37:47;2.80;97.50
9373;DHT22;10838;52.350;9.790;2024-01-15T07:40:14;2.80;97.50
9373;DHT22;10838;52.350;9.790;2024-01-15T07:42:40;2.80;97.50
9373;DHT22;10838;52.350;9.790;2024-01-15T07:45:08;2.80;97.50
9373;DHT22;10838;52.350;9.790;2024-01-15T07:47:35;2.80;97.60
9373;DHT22;10838;52.350;9.790;2024-01-15T07:50:03;2.80;97.60
9373;DHT22;10838;52.350;9.790;2024-01-15T07:52:30;2.80;97.60
9373;DHT22;10838;52.350;9.790;2024-01-15T07:54:56;2.80;97.60
9373;DHT22;10838;52.350;9.790;2024-01-15T07:57:24;2.80;97.60
9373;DHT22;10838;52.350;9.790;2024-01-15T07:59:51;2.80;97.60
9373;DHT22;10838;52.350;9.790;2024-01-15T08:02:17;2.80;97.60
9373;DHT22;10838;52.350;9.790;2024-01-15T08:04:44;2.80;97.60
9373;DHT22;10838;52.350;9.790;2024-01-15T08:07:12;2.80;97.70
9373;DHT22;10838;52.350;9.790;2024-01-15T08:09:40;2.80;97.70
9373;DHT22;10838;52.350;9.790;2024-01-15T08:12:07;2.80;97.70
9373;DHT22;10838;52.350;9.790;2024-01-15T08:14:35;2.80;97.70
9373;DHT22;10838;52.350;9.790;2024-01-15T08:17:02;2.80;97.70
9373;DHT22;10838;52.350;9.790;2024-01-15T08:19:28;2.80;97.70
9373;DHT22;10838;52.350;9.790;2024-01-15T08:21:55;2.80;97.70
9373;DHT22;10838;52.350;9.790;2024-01-15T08:24:22;2.70;97.70
9373;DHT22;10838;52.350;9.790;2024-01-15T08:26:49;2.70;97.70
9373;DHT22;10838;52.350;9.790;2024-01-15T08:29:15;2.70;97.70
9373;DHT22;10838;52.350;9.790;2024-01-15T08:31:44;2.70;97.70
9373;DHT22;10838;52.350;9.790;2024-01-15T08:34:10;2.70;97.70
9373;DHT22;10838;52.350;9.790;2024-01-15T08:36:37;2.60;97.70
9373;DHT22;10838;52.350;9.790;2024-01-15T08:39:03;2.60;97.70
9373;DHT22;10838;52.350;9.790;2024-01-15T08:41:33;2.60;97.70
9373;DHT22;10838;52.350;9.790;2024-01-15T08:44:00;2.60;97.80
9373;DHT22;10838;52.350;9.790;2024-01-15T08:46:26;2.60;97.70
9373;DHT22;10838;52.350;9.790;2024-01-15T08:48:53;2.60;97.80
9373;DHT22;10838;52.350;9.790;2024-01-15T08:51:19;2.60;97.80
9373;DHT22;10838;52.350;9.790;2024-01-15T08:53:46;2.60;97.70
9373;DHT22;10838;52.350;9.790;2024-01-15T08:56:12;2.70;97.80
9373;DHT22;10838;52.350;9.790;2024-01-15T08:58:40;2.60;97.80
9373;DHT22;10838;52.350;9.790;2024-01-15T09:01:07;2.70;97.80
9373;DHT22;10838;52.350;9.790;2024-01-15T09:03:34;2.70;97.80
9373;DHT22;10838;52.350;9.790;2024-01-15T09:06:02;2.70;97.80
9373;DHT22;10838;52.350;9.790;2024-01-15T09:08:29;2.80;97.80
9373;DHT22;10838;52.350;9.790;2024-01-15T09:10:55;2.80;97.80
9373;DHT22;10838;52.350;9.790;2024-01-15T09:13:22;2.80;97.80
9373;DHT22;10838;52.350;9.790;2024-01-15T09:15:49;2.80;97.70
9373;DHT22;10838;52.350;9.790;2024-01-15T09:18:16;2.80;97.80
9373;DHT22;10838;52.350;9.790;2024-01-15T09:20:42;2.80;97.70
9373;DHT22;10838;52.350;9.790;2024-01-15T09:23:09;2.90;97.70
9373;DHT22;10838;52.350;9.790;2024-01-15T09:25:35;2.90;97.70
9373;DHT22;10838;52.350;9.790;2024-01-15T09:28:02;2.90;97.70
9373;DHT22;10838;52.350;9.790;2024-01-15T09:30:29;2.90;97.70
9373;DHT22;10838;52.350;9.790;2024-01-15T09:32:57;2.90;97.70
9373;DHT22;10838;52.350;9.790;2024-01-15T09:35:23;3.00;97.70
9373;DHT22;10838;52.350;9.790;2024-01-15T09:37:50;3.00;97.70
9373;DHT22;10838;52.350;9.790;2024-01-15T09:40:17;3.00;97.60
9373;DHT22;10838;52.350;9.790;2024-01-15T09:42:46;3.00;97.60
9373;DHT22;10838;52.350;9.790;2024-01-15T09:45:13;3.10;97.60
9373;DHT22;10838;52.350;9.790;2024-01-15T09:47:41;3.10;97.60
9373;DHT22;10838;52.350;9.790;2024-01-15T09:50:10;3.10;97.60
9373;DHT22;10838;52.350;9.790;2024-01-15T09:52:36;3.10;97.60
9373;DHT22;10838;52.350;9.790;2024-01-15T09:55:04;3.20;97.60
9373;DHT22;10838;52.350;9.790;2024-01-15T09:57:31;3.20;97.50
9373;DHT22;10838;52.350;9.790;2024-01-15T09:59:59;3.20;97.50
9373;DHT22;10838;52.350;9.790;2024-01-15T10:02:29;3.20;97.50
9373;DHT22;10838;52.350;9.790;2024-01-15T10:04:55;3.20;97.50
9373;DHT22;10838;52.350;9.790;2024-01-15T10:07:25;3.20;97.50
9373;DHT22;10838;52.350;9.790;2024-01-15T10:09:53;3.20;97.50
9373;DHT22;10838;52.350;9.790;2024-01-15T10:12:21;3.20;97.50
9373;DHT22;10838;52.350;9.790;2024-01-15T10:14:48;3.20;97.50
9373;DHT22;10838;52.350;9.790;2024-01-15T10:17:15;3.20;97.50
9373;DHT22;10838;52.350;9.790;2024-01-15T10:19:42;3.20;97.50
9373;DHT22;10838;52.350;9.790;2024-01-15T10:22:09;3.20;97.50
9373;DHT22;10838;52.350;9.790;2024-01-15T10:24:37;3.20;97.50
9373;DHT22;10838;52.350;9.790;2024-01-15T10:27:07;3.10;97.50
9373;DHT22;10838;52.350;9.790;2024-01-15T10:29:34;3.20;97.50
9373;DHT22;10838;52.350;9.790;2024-01-15T10:32:01;3.10;97.50
9373;DHT22;10838;52.350;9.790;2024-01-15T10:34:28;3.20;97.50
9373;DHT22;10838;52.350;9.790;2024-01-15T10:36:56;3.20;97.50
9373;DHT22;10838;52.350;9.790;2024-01-15T10:39:23;3.30;97.60
9373;DHT22;10838;52.350;9.790;2024-01-15T10:41:51;3.30;97.60
9373;DHT22;10838;52.350;9.790;2024-01-15T10:44:18;3.30;97.60
9373;DHT22;10838;52.350;9.790;2024-01-15T10:46:45;3.40;97.60
9373;DHT22;10838;52.350;9.790;2024-01-15T10:49:12;3.40;97.60
9373;DHT22;10838;52.350;9.790;2024-01-15T10:51:39;3.40;97.50
9373;DHT22;10838;52.350;9.790;2024-01-15T10:54:09;3.50;97.50
9373;DHT22;10838;52.350;9.790;2024-01-15T10:56:37;3.50;97.50
9373;DHT22;10838;52.350;9.790;2024-01-15T10:59:07;3.50;97.50
9373;DHT22;10838;52.350;9.790;2024-01-15T11:01:36;3.50;97.50
9373;DHT22;10838;52.350;9.790;2024-01-15T11:04:03;3.60;97.40
9373;DHT22;10838;52.350;9.790;2024-01-15T11:06:42;3.50;97.30
9373;DHT22;10838;52.350;9.790;2024-01-15T11:09:09;3.50;97.30
9373;DHT22;10838;52.350;9.790;2024-01-15T11:11:36;3.50;97.30
9373;DHT22;10838;52.350;9.790;2024-01-15T11:14:02;3.50;97.30
9373;DHT22;10838;52.350;9.790;2024-01-15T11:16:53;3.50;97.30
9373;DHT22;10838;52.350;9.790;2024-01-15T11:19:21;3.50;97.20
9373;DHT22;10838;52.350;9.790;2024-01-15T11:21:48;3.50;97.20
9373;DHT22;10838;52.350;9.790;2024-01-15T11:24:35;3.60;97.20
9373;DHT22;10838;52.350;9.790;2024-01-15T11:27:03;3.60;97.20
9373;DHT22;10838;52.350;9.790;2024-01-15T11:29:30;3.60;97.10
9373;DHT22;10838;52.350;9.790;2024-01-15T11:32:01;3.60;97.10
9373;DHT22;10838;52.350;9.790;2024-01-15T11:34:55;3.70;97.10
9373;DHT22;10838;52.350;9.790;2024-01-15T11:37:24;3.70;97.10
9373;DHT22;10838;52.350;9.790;2024-01-15T11:39:52;3.80;97.10
9373;DHT22;10838;52.350;9.790;2024-01-15T11:42:20;3.80;97.10
9373;DHT22;10838;52.350;9.790;2024-01-15T11:44:47;3.80;97.10
9373;DHT22;10838;52.350;9.790;2024-01-15T11:47:15;3.80;97.10
9373;DHT22;10838;52.350;9.790;2024-01-15T11:50:01;3.80;97.10
9373;DHT22;10838;52.350;9.790;2024-01-15T11:52:33;3.80;97.00
9373;DHT22;10838;52.350;9.790;2024-01-15T11:55:11;3.80;97.00
9373;DHT22;10838;52.350;9.790;2024-01-15T11:57:41;3.80;97.00
9373;DHT22;10838;52.350;9.790;2024-01-15T12:00:09;3.80;97.00
9373;DHT22;10838;52.350;9.790;2024-01-15T12:02:38;3.80;97.00
9373;DHT22;10838;52.350;9.790;2024-01-15T12:05:06;3.80;97.00
9373;DHT22;10838;52.350;9.790;2024-01-15T12:07:33;3.80;97.00
9373;DHT22;10838;52.350;9.790;2024-01-15T12:09:59;3.80;97.00
9373;DHT22;10838;52.350;9.790;2024-01-15T12:12:32;3.90;97.00
9373;DHT22;10838;52.350;9.790;2024-01-15T12:15:03;3.90;97.00
9373;DHT22;10838;52.350;9.790;2024-01-15T12:17:30;3.90;97.00
9373;DHT22;10838;52.350;9.790;2024-01-15T12:19:58;3.90;97.00
9373;DHT22;10838;52.350;9.790;2024-01-15T12:22:25;3.90;97.00
9373;DHT22;10838;52.350;9.790;2024-01-15T12:24:53;3.90;96.90
9373;DHT22;10838;52.350;9.790;2024-01-15T12:27:19;3.90;96.90
9373;DHT22;10838;52.350;9.790;2024-01-15T12:29:46;3.90;96.90
9373;DHT22;10838;52.350;9.790;2024-01-15T12:32:13;3.90;96.90
9373;DHT22;10838;52.350;9.790;2024-01-15T12:34:39;3.80;96.90
9373;DHT22;10838;52.350;9.790;2024-01-15T12:37:08;3.90;96.90
9373;DHT22;10838;52.350;9.790;2024-01-15T12:39:34;3.90;96.90
9373;DHT22;10838;52.350;9.790;2024-01-15T12:42:01;3.90;96.80
9373;DHT22;10838;52.350;9.790;2024-01-15T12:44:29;3.90;96.80
9373;DHT22;10838;52.350;9.790;2024-01-15T12:46:55;3.90;96.80
9373;DHT22;10838;52.350;9.790;2024-01-15T12:49:23;3.90;96.80
9373;DHT22;10838;52.350;9.790;2024-01-15T12:51:53;4.00;96.80
9373;DHT22;10838;52.350;9.790;2024-01-15T12:54:22;4.00;96.80
9373;DHT22;10838;52.350;9.790;2024-01-15T12:56:49;4.00;96.70
9373;DHT22;10838;52.350;9.790;2024-01-15T12:59:16;4.00;96.70
9373;DHT22;10838;52.350;9.790;2024-01-15T13:01:43;4.00;96.70
9373;DHT22;10838;52.350;9.790;2024-01-15T13:04:09;4.00;96.70
9373;DHT22;10838;52.350;9.790;2024-01-15T13:06:36;3.90;96.70
9373;DHT22;10838;52.350;9.790;2024-01-15T13:09:03;4.00;96.80
9373;DHT22;10838;52.350;9.790;2024-01-15T13:11:32;4.00;96.70
9373;DHT22;10838;52.350;9.790;2024-01-15T13:13:59;3.90;96.70
9373;DHT22;10838;52.350;9.790;2024-01-15T13:16:25;3.90;96.70
9373;DHT22;10838;52.350;9.790;2024-01-15T13:18:54;3.90;96.70
9373;DHT22;10838;52.350;9.790;2024-01-15T13:21:21;3.90;96.70
9373;DHT22;10838;52.350;9.790;2024-01-15T13:23:47;3.90;96.80
9373;DHT22;10838;52.350;9.790;2024-01-15T13:26:14;3.90;96.80
9373;DHT22;10838;52.350;9.790;2024-01-15T13:28:42;3.90;96.80
9373;DHT22;10838;52.350;9.790;2024-01-15T13:31:08;3.90;96.70
9373;DHT22;10838;52.350;9.790;2024-01-15T13:33:35;3.90;96.80
9373;DHT22;10838;52.350;9.790;2024-01-15T13:36:01;3.90;96.80
9373;DHT22;10838;52.350;9.790;2024-01-15T13:38:28;3.80;96.80
9373;DHT22;10838;52.350;9.790;2024-01-15T13:41:01;3.80;96.70
9373;DHT22;10838;52.350;9.790;2024-01-15T13:43:27;3.80;96.80
9373;DHT22;10838;52.350;9.790;2024-01-15T13:45:55;3.80;96.80
9373;DHT22;10838;52.350;9.790;2024-01-15T13:48:22;3.80;96.80
9373;DHT22;10838;52.350;9.790;2024-01-15T13:50:49;3.80;96.80
9373;DHT22;10838;52.350;9.790;2024-01-15T13:53:16;3.80;96.80
9373;DHT22;10838;52.350;9.790;2024-01-15T13:55:42;3.80;96.80
9373;DHT22;10838;52.350;9.790;2024-01-15T13:58:09;3.70;96.80
9373;DHT22;10838;52.350;9.790;2024-01-15T14:00:35;3.70;96.90
9373;DHT22;10838;52.350;9.790;2024-01-15T14:03:04;3.70;96.90
9373;DHT22;10838;52.350;9.790;2024-01-15T14:05:30;3.60;96.90
9373;DHT22;10838;52.350;9.790;2024-01-15T14:07:57;3.60;96.90
9373;DHT22;10838;52.350;9.790;2024-01-15T14:10:24;3.60;97.00
9373;DHT22;10838;52.350;9.790;2024-01-15T14:12:50;3.60;97.00
9373;DHT22;10838;52.350;9.790;2024-01-15T14:15:17;3.50;97.10
9373;DHT22;10838;52.350;9.790;2024-01-15T14:17:46;3.50;97.00
9373;DHT22;10838;52.350;9.790;2024-01-15T14:20:14;3.50;97.00
9373;DHT22;10838;52.350;9.790;2024-01-15T14:22:40;3.50;97.10
9373;DHT22;10838;52.350;9.790;2024-01-15T14:25:07;3.40;97.10
9373;DHT22;10838;52.350;9.790;2024-01-15T14:27:35;3.40;97.10
9373;DHT22;10838;52.350;9.790;2024-01-15T14:30:01;3.30;97.10
9373;DHT22;10838;52.350;9.790;2024-01-15T14:32:28;3.30;97.10
9373;DHT22;10838;52.350;9.790;2024-01-15T14:34:55;3.30;97.20
9373;DHT22;10838;52.350;9.790;2024-01-15T14:37:24;3.30;97.20
9373;DHT22;10838;52.350;9.790;2024-01-15T14:39:50;3.30;97.20
9373;DHT22;10838;52.350;9.790;2024-01-15T14:42:17;3.30;97.20
9373;DHT22;10838;52.350;9.790;2024-01-15T14:44:44;3.30;97.20
9373;DHT22;10838;52.350;9.790;2024-01-15T14:47:10;3.30;97.20
9373;DHT22;10838;52.350;9.790;2024-01-15T14:49:37;3.30;97.20
9373;DHT22;10838;52.350;9.790;2024-01-15T14:52:04;3.20;97.20
9373;DHT22;10838;52.350;9.790;2024-01-15T14:54:33;3.20;97.20
9373;DHT22;10838;52.350;9.790;2024-01-15T14:57:00;3.20;97.20
9373;DHT22;10838;52.350;9.790;2024-01-15T14:59:26;3.20;97.30
9373;DHT22;10838;52.350;9.790;2024-01-15T15:01:54;3.20;97.30
9373;DHT22;10838;52.350;9.790;2024-01-15T15:04:22;3.10;97.30
9373;DHT22;10838;52.350;9.790;2024-01-15T15:06:48;3.10;97.30
9373;DHT22;10838;52.350;9.790;2024-01-15T15:09:15;3.10;97.30
9373;DHT22;10838;52.350;9.790;2024-01-15T15:11:43;3.10;97.30
9373;DHT22;10838;52.350;9.790;2024-01-15T15:14:10;3.10;97.30
9373;DHT22;10838;52.350;9.790;2024-01-15T15:16:36;3.10;97.30
9373;DHT22;10838;52.350;9.790;2024-01-15T15:19:03;3.00;97.30
9373;DHT22;10838;52.350;9.790;2024-01-15T15:21:29;3.00;97.40
9373;DHT22;10838;52.350;9.790;2024-01-15T15:23:56;3.00;97.40
9373;DHT22;10838;52.350;9.790;2024-01-15T15:26:23;3.00;97.40
9373;DHT22;10838;52.350;9.790;2024-01-15T15:28:51;3.00;97.40
9373;DHT22;10838;52.350;9.790;2024-01-15T15:31:17;2.90;97.40
9373;DHT22;10838;52.350;9.790;2024-01-15T15:33:44;2.90;97.40
9373;DHT22;10838;52.350;9.790;2024-01-15T15:36:10;2.90;97.40
9373;DHT22;10838;52.350;9.790;2024-01-15T15:38:37;2.90;97.40
9373;DHT22;10838;52.350;9.790;2024-01-15T15:41:04;2.90;97.40
9373;DHT22;10838;52.350;9.790;2024-01-15T15:43:30;2.90;97.50
9373;DHT22;10838;52.350;9.790;2024-01-15T15:45:59;2.90;97.50
9373;DHT22;10838;52.350;9.790;2024-01-15T15:48:26;2.90;97.50
9373;DHT22;10838;52.350;9.790;2024-01-15T15:50:52;2.90;97.50
9373;DHT22;10838;52.350;9.790;2024-01-15T15:53:20;2.90;97.50
9373;DHT22;10838;52.350;9.790;2024-01-15T15:55:47;2.90;97.50
9373;DHT22;10838;52.350;9.790;2024-01-15T15:58:14;2.90;97.50
9373;DHT22;10838;52.350;9.790;2024-01-15T16:00:40;2.90;97.50